Terminal Aerodrome Forecast
Issued by NWS Wakefield, VA

Home | Current Version | Previous Version | Text Only | Print | Product List | Glossary On
Versions: 1 2 3 4 5 6 7 8 9 10 11 12 13 14 15 16 17
000
FTUS41 KAKQ 210537
TAFORF
TAF
KORF 210537Z 2106/2206 00000KT 4SM BR OVC008
     FM210700 00000KT 3SM BR OVC005
      TEMPO 2107/2111 1/2SM -DZ FG OVC003
     FM211500 VRB04KT P6SM BKN015=

USA.gov is the U.S. government's official web portal to all federal, state and local government web resources and services.